createdAt,value
2018-09-21T00:00:01.874Z,3.10
2018-09-21T00:00:43.426Z,2.87
2018-09-21T00:01:23.479Z,2.92
2018-09-21T00:02:02.750Z,3.10
2018-09-21T00:02:41.812Z,2.87
2018-09-21T00:03:20.911Z,2.70
2018-09-21T00:04:05.920Z,3.02
2018-09-21T00:04:46.575Z,3.10
2018-09-21T00:05:25.821Z,3.17
2018-09-21T00:06:04.817Z,3.05
2018-09-21T00:06:45.168Z,2.53
2018-09-21T00:07:24.411Z,3.20
2018-09-21T00:08:03.501Z,3.60
2018-09-21T00:08:42.353Z,2.50
2018-09-21T00:09:21.932Z,2.90
2018-09-21T00:10:00.600Z,2.98
2018-09-21T00:10:39.492Z,3.07
2018-09-21T00:11:18.401Z,3.30
2018-09-21T00:11:57.273Z,2.62
2018-09-21T00:12:36.959Z,3.05
2018-09-21T00:13:15.919Z,3.00
2018-09-21T00:13:55.397Z,2.70
2018-09-21T00:14:35.432Z,3.30
2018-09-21T00:15:15.196Z,3.12
2018-09-21T00:15:54.845Z,3.42
2018-09-21T00:16:34.067Z,2.83
2018-09-21T00:17:12.964Z,3.27
2018-09-21T00:17:51.406Z,3.30
2018-09-21T00:18:29.600Z,2.85
2018-09-21T00:19:08.105Z,2.95
2018-09-21T00:19:46.884Z,2.90
2018-09-21T00:20:25.142Z,3.20
2018-09-21T00:21:03.219Z,2.72
2018-09-21T00:21:41.917Z,2.77
2018-09-21T00:22:20.695Z,2.80
2018-09-21T00:22:59.078Z,3.00
2018-09-21T00:23:37.509Z,3.52
2018-09-21T00:24:16.245Z,3.27
2018-09-21T00:24:55.485Z,3.27
2018-09-21T00:25:34.901Z,3.02
2018-09-21T00:26:14.394Z,3.20
2018-09-21T00:26:52.447Z,3.20
2018-09-21T00:27:31.464Z,2.90
2018-09-21T00:28:09.876Z,3.20
2018-09-21T00:28:48.555Z,2.87
2018-09-21T00:29:26.525Z,3.10
2018-09-21T00:30:05.002Z,2.80
2018-09-21T00:30:43.067Z,3.30
2018-09-21T00:31:21.009Z,3.00
2018-09-21T00:32:00.421Z,3.35
2018-09-21T00:32:38.526Z,3.20
2018-09-21T00:33:16.434Z,3.08
2018-09-21T00:33:56.863Z,2.75
2018-09-21T00:34:34.996Z,2.95
2018-09-21T00:35:13.337Z,2.52
2018-09-21T00:35:51.653Z,2.95
2018-09-21T00:36:30.018Z,3.65
2018-09-21T00:37:08.732Z,3.15
2018-09-21T00:37:46.991Z,3.33
2018-09-21T00:38:25.480Z,3.12
2018-09-21T00:39:04.383Z,2.75
2018-09-21T00:39:42.663Z,3.50
2018-09-21T00:40:20.824Z,3.30
2018-09-21T00:41:01.076Z,2.95
2018-09-21T00:41:39.112Z,3.80
2018-09-21T00:42:17.386Z,2.75
2018-09-21T00:42:56.029Z,3.47
2018-09-21T00:43:34.682Z,3.10
2018-09-21T00:44:13.001Z,3.15
2018-09-21T00:44:50.947Z,3.20
2018-09-21T00:45:29.447Z,3.30
2018-09-21T00:46:08.297Z,2.77
2018-09-21T00:46:47.564Z,3.25
2018-09-21T00:47:26.080Z,3.20
2018-09-21T00:48:04.140Z,3.00
2018-09-21T00:48:42.308Z,3.17
2018-09-21T00:49:20.355Z,2.80
2018-09-21T00:49:59.745Z,3.20
2018-09-21T00:50:39.474Z,3.23
2018-09-21T00:51:18.183Z,3.10
2018-09-21T00:51:56.626Z,2.90
2018-09-21T00:52:35.145Z,3.60
2018-09-21T00:53:13.578Z,3.00
2018-09-21T00:53:51.648Z,3.47
2018-09-21T00:54:29.723Z,3.12
2018-09-21T00:55:08.817Z,3.10
2018-09-21T00:55:47.942Z,3.55
2018-09-21T00:56:26.273Z,3.37
2018-09-21T00:57:05.771Z,3.47
2018-09-21T00:57:43.885Z,3.20
2018-09-21T00:58:22.535Z,3.22
2018-09-21T00:59:02.925Z,3.62
2018-09-21T00:59:41.892Z,3.22
2018-09-21T01:00:20.760Z,3.00
2018-09-21T01:00:59.017Z,3.45
2018-09-21T01:01:37.521Z,3.35
2018-09-21T01:02:15.777Z,3.72
2018-09-21T01:02:54.638Z,3.05
2018-09-21T01:03:33.404Z,2.98
2018-09-21T01:04:11.430Z,3.12
2018-09-21T01:04:50.693Z,3.10
2018-09-21T01:05:29.297Z,3.55
2018-09-21T01:06:08.456Z,3.50
2018-09-21T01:06:46.916Z,3.90
2018-09-21T01:07:24.906Z,3.00
2018-09-21T01:08:04.492Z,3.60
2018-09-21T01:08:44.532Z,3.30
2018-09-21T01:09:22.929Z,3.50
2018-09-21T01:10:01.304Z,3.02
2018-09-21T01:10:39.923Z,3.30
2018-09-21T01:11:19.043Z,3.40
2018-09-21T01:11:57.940Z,3.22
2018-09-21T01:12:35.901Z,3.10
2018-09-21T01:13:13.916Z,3.62
2018-09-21T01:13:58.459Z,3.37
2018-09-21T01:14:36.645Z,3.20
2018-09-21T01:15:15.890Z,3.35
2018-09-21T01:15:54.476Z,3.50
2018-09-21T01:16:32.830Z,3.27
2018-09-21T01:17:11.079Z,3.40
2018-09-21T01:17:49.781Z,3.20
2018-09-21T01:18:28.028Z,3.52
2018-09-21T01:19:07.072Z,3.52
2018-09-21T01:19:45.215Z,3.42
2018-09-21T01:20:23.157Z,3.52
2018-09-21T01:21:03.033Z,3.77
2018-09-21T01:21:41.442Z,3.12
2018-09-21T01:22:19.438Z,3.27
2018-09-21T01:22:57.895Z,3.45
2018-09-21T01:23:36.973Z,3.42
2018-09-21T01:24:14.963Z,3.90
2018-09-21T01:24:53.126Z,3.45
2018-09-21T01:25:31.052Z,3.20
2018-09-21T01:26:09.163Z,3.50
2018-09-21T01:26:47.076Z,4.30
2018-09-21T01:27:25.340Z,4.30
2018-09-21T01:28:03.336Z,4.05
2018-09-21T01:28:41.284Z,3.60
2018-09-21T01:29:19.277Z,4.22
2018-09-21T01:29:57.419Z,4.15
2018-09-21T01:30:35.371Z,4.00
2018-09-21T01:31:13.469Z,4.15
2018-09-21T01:31:51.406Z,4.00
2018-09-21T01:32:29.371Z,4.22
2018-09-21T01:33:07.838Z,4.03
2018-09-21T01:33:46.009Z,4.70
2018-09-21T01:34:24.139Z,4.03
2018-09-21T01:35:03.258Z,4.20
2018-09-21T01:35:41.334Z,3.67
2018-09-21T01:36:19.540Z,4.10
2018-09-21T01:36:57.439Z,4.53
2018-09-21T01:37:35.519Z,4.60
2018-09-21T01:38:13.383Z,4.20
2018-09-21T01:38:51.384Z,4.37
2018-09-21T01:39:32.944Z,5.20
2018-09-21T01:40:10.844Z,3.47
2018-09-21T01:40:49.054Z,3.70
2018-09-21T01:41:26.997Z,4.15
2018-09-21T01:42:05.009Z,4.55
2018-09-21T01:42:42.837Z,4.60
2018-09-21T01:43:20.848Z,3.83
2018-09-21T01:43:58.826Z,4.10
2018-09-21T01:44:37.984Z,4.20
2018-09-21T01:45:15.935Z,4.92
2018-09-21T01:45:53.869Z,4.33
2018-09-21T01:46:31.867Z,4.15
2018-09-21T01:47:09.909Z,3.90
2018-09-21T01:47:47.955Z,4.95
2018-09-21T01:48:30.205Z,4.75
2018-09-21T01:49:08.412Z,4.37
2018-09-21T01:49:46.389Z,4.60
2018-09-21T01:50:24.730Z,4.60
2018-09-21T01:51:02.631Z,4.55
2018-09-21T01:51:40.892Z,5.03
2018-09-21T01:52:19.056Z,4.53
2018-09-21T01:52:57.074Z,4.50
2018-09-21T01:53:35.141Z,5.15
2018-09-21T01:54:13.301Z,4.87
2018-09-21T01:54:51.308Z,5.62
2018-09-21T01:55:29.363Z,4.53
2018-09-21T01:56:08.408Z,4.70
2018-09-21T01:56:46.452Z,5.08
2018-09-21T01:57:24.588Z,4.75
2018-09-21T01:58:02.457Z,4.58
2018-09-21T01:58:40.542Z,4.53
2018-09-21T01:59:18.600Z,4.72
2018-09-21T01:59:56.641Z,4.97
2018-09-21T02:00:35.767Z,4.80
2018-09-21T02:01:14.567Z,4.73
2018-09-21T02:01:54.166Z,5.45
2018-09-21T02:02:33.505Z,5.17
2018-09-21T02:03:11.588Z,5.10
2018-09-21T02:03:50.836Z,4.95
2018-09-21T02:04:33.447Z,5.25
2018-09-21T02:05:11.656Z,4.92
2018-09-21T02:05:49.655Z,5.10
2018-09-21T02:06:27.857Z,5.65
2018-09-21T02:07:06.754Z,5.05
2018-09-21T02:07:44.892Z,4.95
2018-09-21T02:08:22.818Z,4.70
2018-09-21T02:09:00.971Z,5.80
2018-09-21T02:09:39.081Z,4.92
2018-09-21T02:10:17.357Z,5.72
2018-09-21T02:10:55.937Z,5.30
2018-09-21T02:11:33.896Z,5.22
2018-09-21T02:12:12.138Z,4.92
2018-09-21T02:12:50.502Z,7.00
2018-09-21T02:13:29.015Z,5.25
2018-09-21T02:14:07.160Z,5.53
2018-09-21T02:14:46.216Z,4.50
2018-09-21T02:15:25.418Z,5.75
2018-09-21T02:16:03.905Z,5.10
2018-09-21T02:16:42.733Z,5.20
2018-09-21T02:17:21.879Z,5.12
2018-09-21T02:17:59.923Z,4.80
2018-09-21T02:18:38.107Z,5.00
2018-09-21T02:19:16.228Z,5.58
2018-09-21T02:19:54.304Z,5.25
2018-09-21T02:20:32.719Z,5.87
2018-09-21T02:21:11.309Z,5.25
2018-09-21T02:21:49.976Z,5.58
2018-09-21T02:22:28.595Z,5.70
2018-09-21T02:23:07.827Z,4.97
2018-09-21T02:23:46.336Z,5.45
2018-09-21T02:24:26.728Z,4.92
2018-09-21T02:25:05.132Z,5.22
2018-09-21T02:25:45.085Z,5.22
2018-09-21T02:26:23.008Z,5.35
2018-09-21T02:27:01.596Z,4.80
2018-09-21T02:27:40.057Z,4.95
2018-09-21T02:28:18.093Z,5.62
2018-09-21T02:28:57.049Z,5.70
2018-09-21T02:29:35.463Z,5.75
2018-09-21T02:30:14.204Z,5.17
2018-09-21T02:30:52.592Z,5.05
2018-09-21T02:31:31.052Z,5.55
2018-09-21T02:32:09.207Z,4.53
2018-09-21T02:32:47.804Z,5.20
2018-09-21T02:33:26.204Z,4.70
2018-09-21T02:34:04.842Z,5.22
2018-09-21T02:34:43.085Z,5.10
2018-09-21T02:35:21.152Z,4.50
2018-09-21T02:35:59.545Z,5.47
2018-09-21T02:36:38.722Z,5.30
2018-09-21T02:37:18.009Z,4.85
2018-09-21T02:37:57.110Z,4.70
2018-09-21T02:38:36.083Z,5.50
2018-09-21T02:39:18.220Z,5.17
2018-09-21T02:39:56.620Z,4.67
2018-09-21T02:40:34.625Z,5.15
2018-09-21T02:41:14.256Z,4.57
2018-09-21T02:41:52.751Z,4.77
2018-09-21T02:42:31.094Z,4.37
2018-09-21T02:43:09.374Z,4.70
2018-09-21T02:43:48.638Z,3.92
2018-09-21T02:44:27.299Z,3.73
2018-09-21T02:45:05.643Z,3.45
2018-09-21T02:45:44.455Z,4.40
2018-09-21T02:46:23.409Z,3.52
2018-09-21T02:47:01.799Z,3.98
2018-09-21T02:47:40.469Z,3.95
2018-09-21T02:48:19.443Z,4.00
2018-09-21T02:48:58.090Z,3.62
2018-09-21T02:49:37.303Z,3.30
2018-09-21T02:53:16.853Z,3.10
2018-09-21T02:53:55.308Z,3.58
2018-09-21T02:54:33.345Z,3.25
2018-09-21T02:55:11.623Z,4.03
2018-09-21T02:55:50.629Z,3.55
2018-09-21T02:56:28.998Z,3.33
2018-09-21T02:57:07.100Z,3.00
2018-09-21T02:57:46.165Z,3.35
2018-09-21T02:58:24.195Z,3.17
2018-09-21T02:59:02.409Z,3.10
2018-09-21T02:59:41.036Z,3.10
2018-09-21T03:00:19.111Z,3.10
2018-09-21T03:00:57.655Z,2.70
2018-09-21T03:01:35.864Z,2.93
2018-09-21T03:02:14.049Z,2.63
2018-09-21T03:02:51.925Z,3.00
2018-09-21T03:03:29.876Z,3.17
2018-09-21T03:04:07.755Z,2.83
2018-09-21T03:04:49.952Z,2.60
2018-09-21T03:05:27.940Z,2.80
2018-09-21T03:06:13.199Z,3.10
2018-09-21T03:06:51.040Z,3.75
2018-09-21T03:07:29.620Z,2.87
2018-09-21T03:08:07.764Z,2.70
2018-09-21T03:08:45.817Z,2.10
2018-09-21T03:09:23.797Z,2.40
2018-09-21T03:10:02.538Z,2.60
2018-09-21T03:10:40.549Z,3.40
2018-09-21T03:11:18.525Z,2.20
2018-09-21T03:11:56.453Z,1.90
2018-09-21T03:12:34.310Z,2.00
2018-09-21T03:13:12.644Z,2.40
2018-09-21T03:13:50.588Z,2.17
2018-09-21T03:14:29.381Z,2.22
2018-09-21T03:15:07.308Z,2.40
2018-09-21T03:15:45.280Z,2.40
2018-09-21T03:16:24.036Z,2.33
2018-09-21T03:17:02.295Z,2.67
2018-09-21T03:17:40.312Z,2.80
2018-09-21T03:18:18.481Z,2.80
2018-09-21T03:18:56.633Z,8.20
2018-09-21T03:19:35.124Z,3.20
2018-09-21T03:20:15.817Z,3.00
2018-09-21T03:20:54.230Z,2.90
2018-09-21T03:21:32.619Z,2.70
2018-09-21T03:22:10.949Z,2.60
2018-09-21T03:22:49.325Z,2.62
2018-09-21T03:23:31.092Z,3.15
2018-09-21T03:24:10.403Z,2.30
2018-09-21T03:24:49.501Z,2.60
2018-09-21T03:25:27.783Z,2.70
2018-09-21T03:26:06.392Z,2.20
2018-09-21T03:26:46.413Z,2.60
2018-09-21T03:27:24.671Z,2.17
2018-09-21T03:28:06.832Z,2.53
2018-09-21T03:28:45.853Z,2.30
2018-09-21T03:29:25.320Z,3.10
2018-09-21T03:30:04.661Z,3.08
2018-09-21T03:30:44.702Z,2.90
2018-09-21T03:31:23.735Z,2.80
2018-09-21T03:32:01.794Z,2.77
2018-09-21T03:32:39.948Z,3.37
2018-09-21T03:33:18.934Z,2.53
2018-09-21T03:33:57.356Z,3.63
2018-09-21T03:34:35.627Z,2.80
2018-09-21T03:35:14.171Z,2.67
2018-09-21T03:35:53.225Z,3.50
2018-09-21T03:36:32.345Z,2.73
2018-09-21T03:37:11.097Z,2.53
2018-09-21T03:37:49.637Z,2.53
2018-09-21T03:38:27.506Z,2.57
2018-09-21T03:39:06.984Z,2.50
2018-09-21T03:39:45.579Z,2.30
2018-09-21T03:40:24.180Z,2.73
2018-09-21T03:41:02.743Z,2.27
2018-09-21T03:41:41.444Z,2.20
2018-09-21T03:42:20.156Z,2.50
2018-09-21T03:43:00.321Z,1.77
2018-09-21T03:43:38.965Z,1.90
2018-09-21T03:44:17.950Z,2.20
2018-09-21T03:44:56.476Z,2.07
2018-09-21T03:45:35.150Z,1.90
2018-09-21T03:46:13.688Z,1.90
2018-09-21T03:46:51.771Z,2.20
2018-09-21T03:47:30.493Z,2.10
2018-09-21T03:48:09.535Z,1.97
2018-09-21T03:48:48.156Z,2.20
2018-09-21T03:49:26.782Z,2.30
2018-09-21T03:50:05.092Z,1.97
2018-09-21T03:50:43.480Z,2.20
2018-09-21T03:51:22.364Z,2.20
2018-09-21T03:52:00.817Z,2.47
2018-09-21T03:52:38.899Z,2.23
2018-09-21T03:53:17.361Z,2.23
2018-09-21T03:53:55.993Z,2.27
2018-09-21T03:54:33.912Z,2.37
2018-09-21T03:55:11.517Z,2.70
2018-09-21T03:55:49.682Z,2.80
2018-09-21T03:56:27.590Z,2.40
2018-09-21T03:57:05.555Z,2.67
2018-09-21T03:57:43.524Z,2.80
2018-09-21T03:58:21.439Z,2.87
2018-09-21T03:58:59.513Z,2.50
2018-09-21T03:59:37.981Z,2.90
2018-09-21T04:00:16.530Z,3.00
2018-09-21T04:00:54.792Z,2.58
2018-09-21T04:01:32.736Z,2.90
2018-09-21T04:02:11.238Z,3.50
2018-09-21T04:02:49.168Z,3.03
2018-09-21T04:03:28.224Z,3.40
2018-09-21T04:04:06.252Z,2.53
2018-09-21T04:04:45.916Z,2.67
2018-09-21T04:05:24.035Z,2.60
2018-09-21T04:06:02.145Z,2.90
2018-09-21T04:06:40.200Z,2.20
2018-09-21T04:07:18.392Z,2.33
2018-09-21T04:07:56.396Z,2.40
2018-09-21T04:08:34.908Z,3.53
2018-09-21T04:09:13.616Z,2.47
2018-09-21T04:09:51.768Z,2.60
2018-09-21T04:10:29.968Z,2.23
2018-09-21T04:11:07.984Z,2.43
2018-09-21T04:11:45.877Z,2.73
2018-09-21T04:12:23.877Z,2.47
2018-09-21T04:13:02.016Z,2.30
2018-09-21T04:13:40.061Z,2.23
2018-09-21T04:14:18.054Z,2.37
2018-09-21T04:14:56.078Z,1.97
2018-09-21T04:15:34.149Z,2.30
2018-09-21T04:16:12.118Z,2.60
2018-09-21T04:16:50.073Z,2.03
2018-09-21T04:17:28.255Z,2.10
2018-09-21T04:18:08.028Z,2.50
2018-09-21T04:18:46.035Z,2.30
2018-09-21T04:19:24.116Z,2.30
2018-09-21T04:20:02.157Z,1.73
2018-09-21T04:20:40.268Z,2.07
2018-09-21T04:21:18.203Z,1.97
2018-09-21T04:21:56.141Z,2.40
2018-09-21T04:22:34.572Z,2.20
2018-09-21T04:23:12.761Z,2.20
2018-09-21T04:23:50.771Z,2.33
2018-09-21T04:24:28.764Z,2.10
2018-09-21T04:25:07.695Z,2.00
2018-09-21T04:25:45.683Z,1.90
2018-09-21T04:26:24.079Z,1.80
2018-09-21T04:27:03.342Z,2.23
2018-09-21T04:27:41.617Z,1.70
2018-09-21T04:28:20.683Z,1.70
2018-09-21T04:29:00.049Z,2.00
2018-09-21T04:29:38.175Z,2.13
2018-09-21T04:30:16.678Z,1.85
2018-09-21T04:30:54.633Z,2.00
2018-09-21T04:31:32.714Z,1.80
2018-09-21T04:32:10.708Z,2.10
2018-09-21T04:32:49.043Z,1.77
2018-09-21T04:33:27.115Z,2.30
2018-09-21T04:34:05.084Z,1.57
2018-09-21T04:34:42.980Z,1.83
2018-09-21T04:35:21.204Z,2.10
2018-09-21T04:36:00.191Z,1.90
2018-09-21T04:36:38.315Z,1.80
2018-09-21T04:37:16.209Z,2.10
2018-09-21T04:37:54.594Z,2.13
2018-09-21T04:38:32.804Z,2.10
2018-09-21T04:39:14.047Z,1.87
2018-09-21T04:39:52.089Z,1.70
2018-09-21T04:40:30.877Z,1.50
2018-09-21T04:41:10.727Z,2.10
2018-09-21T04:41:48.637Z,1.80
2018-09-21T04:42:27.086Z,1.73
2018-09-21T04:43:05.479Z,1.60
2018-09-21T04:43:43.457Z,2.10
2018-09-21T04:44:21.566Z,1.67
2018-09-21T04:44:59.552Z,1.70
2018-09-21T04:45:37.642Z,2.00
2018-09-21T04:46:16.824Z,1.83
2018-09-21T04:46:54.793Z,1.73
2018-09-21T04:47:32.714Z,1.90
2018-09-21T04:48:10.745Z,1.90
2018-09-21T04:48:48.960Z,1.70
2018-09-21T04:49:26.896Z,1.50
2018-09-21T04:50:04.958Z,1.60
2018-09-21T04:50:43.177Z,2.07
2018-09-21T04:51:21.223Z,1.87
2018-09-21T04:51:59.119Z,1.57
2018-09-21T04:52:37.390Z,1.97
2018-09-21T04:53:16.224Z,2.00
2018-09-21T04:53:54.216Z,1.67
2018-09-21T04:54:33.312Z,1.80
2018-09-21T04:55:11.347Z,1.60
2018-09-21T04:55:49.269Z,1.63
2018-09-21T04:56:27.349Z,1.93
2018-09-21T04:57:05.209Z,1.60
2018-09-21T04:57:43.360Z,1.90
2018-09-21T04:58:21.497Z,1.93
2018-09-21T04:58:59.460Z,1.40
2018-09-21T04:59:37.499Z,1.63
2018-09-21T05:00:15.497Z,1.50
2018-09-21T05:00:53.621Z,1.57
2018-09-21T05:01:31.486Z,1.80
2018-09-21T05:02:09.398Z,1.80
2018-09-21T05:02:47.598Z,1.60
2018-09-21T05:03:25.588Z,2.03
2018-09-21T05:04:03.524Z,2.10
2018-09-21T05:04:41.476Z,1.77
2018-09-21T05:05:19.560Z,1.70
2018-09-21T05:05:57.444Z,1.70
2018-09-21T05:06:35.380Z,1.67
2018-09-21T05:07:13.533Z,1.67
2018-09-21T05:07:51.457Z,1.77
2018-09-21T05:08:29.384Z,1.57
2018-09-21T05:09:08.501Z,2.00
2018-09-21T05:09:48.423Z,1.70
2018-09-21T05:10:27.349Z,1.70
2018-09-21T05:11:06.816Z,1.70
2018-09-21T05:11:44.809Z,1.60
2018-09-21T05:12:22.940Z,1.60
2018-09-21T05:13:01.073Z,1.70
2018-09-21T05:13:39.202Z,1.60
2018-09-21T05:14:18.939Z,1.50
2018-09-21T05:14:57.277Z,1.80
2018-09-21T05:15:35.336Z,2.50
2018-09-21T05:16:14.141Z,1.50
2018-09-21T05:16:52.260Z,1.70
2018-09-21T05:17:31.083Z,1.73
2018-09-21T05:18:09.156Z,1.73
2018-09-21T05:18:47.453Z,1.70
2018-09-21T05:19:25.969Z,1.70
2018-09-21T05:20:03.856Z,1.97
2018-09-21T05:20:41.783Z,2.10
2018-09-21T05:21:21.178Z,1.97
2018-09-21T05:21:59.234Z,2.10
2018-09-21T05:22:38.408Z,2.00
2018-09-21T05:23:16.393Z,2.07
2018-09-21T05:23:56.149Z,1.90
2018-09-21T05:24:34.705Z,1.90
2018-09-21T05:25:19.832Z,1.70
2018-09-21T05:25:59.462Z,1.80
2018-09-21T05:26:37.417Z,1.80
2018-09-21T05:27:15.471Z,2.17
2018-09-21T05:27:53.632Z,1.80
2018-09-21T05:28:31.578Z,1.90
2018-09-21T05:29:10.212Z,1.90
2018-09-21T05:29:48.223Z,1.93
2018-09-21T05:30:26.664Z,2.00
2018-09-21T05:31:05.011Z,1.73
2018-09-21T05:31:43.144Z,1.90
2018-09-21T05:32:21.405Z,2.10
2018-09-21T05:32:59.397Z,1.90
2018-09-21T05:33:38.312Z,2.00
2018-09-21T05:34:16.984Z,1.98
2018-09-21T05:34:54.929Z,2.07
2018-09-21T05:35:35.772Z,1.80
2018-09-21T05:36:13.720Z,1.90
2018-09-21T05:36:51.723Z,1.63
2018-09-21T05:37:29.887Z,2.00
2018-09-21T05:38:07.859Z,2.53
2018-09-21T05:38:46.768Z,2.00
2018-09-21T05:39:24.680Z,1.80
2018-09-21T05:40:02.648Z,1.70
2018-09-21T05:40:40.459Z,1.60
2018-09-21T05:41:18.304Z,2.00
2018-09-21T05:41:56.372Z,1.87
2018-09-21T05:42:34.409Z,1.83
2018-09-21T05:43:12.366Z,1.73
2018-09-21T05:43:50.437Z,2.00
2018-09-21T05:44:28.388Z,1.70
2018-09-21T05:45:06.306Z,1.93
2018-09-21T05:45:44.244Z,2.87
2018-09-21T05:46:23.505Z,1.87
2018-09-21T05:47:01.874Z,2.03
2018-09-21T05:47:43.000Z,1.80
2018-09-21T05:48:20.978Z,2.40
2018-09-21T05:48:58.940Z,1.80
2018-09-21T05:49:37.072Z,2.03
2018-09-21T05:50:16.147Z,1.43
2018-09-21T05:50:54.151Z,1.80
2018-09-21T05:51:32.254Z,1.70
2018-09-21T05:52:10.441Z,1.80
2018-09-21T05:52:48.416Z,1.63
2018-09-21T05:53:26.473Z,1.90
2018-09-21T05:54:04.395Z,1.90
2018-09-21T05:54:42.356Z,2.00
2018-09-21T05:55:20.544Z,1.90
2018-09-21T05:55:58.566Z,1.73
2018-09-21T05:56:37.587Z,1.47
2018-09-21T05:57:15.793Z,1.77
2018-09-21T05:57:53.684Z,1.90
2018-09-21T05:58:31.629Z,1.47
2018-09-21T05:59:09.634Z,1.63
2018-09-21T05:59:47.684Z,1.67
2018-09-21T06:00:25.711Z,1.70
2018-09-21T06:01:03.595Z,2.03
2018-09-21T06:01:41.504Z,1.87
2018-09-21T06:02:20.537Z,1.83
2018-09-21T06:02:58.504Z,1.97
2018-09-21T06:03:36.638Z,1.83
2018-09-21T06:04:15.497Z,1.80
2018-09-21T06:05:02.062Z,1.80
2018-09-21T06:05:41.217Z,1.70
2018-09-21T06:06:21.619Z,1.90
2018-09-21T06:07:00.609Z,2.00
2018-09-21T06:07:39.596Z,2.00
2018-09-21T06:08:17.619Z,1.67
2018-09-21T06:08:55.956Z,2.13
2018-09-21T06:09:34.362Z,1.60
2018-09-21T06:10:12.260Z,1.93
2018-09-21T06:10:51.204Z,1.67
2018-09-21T06:11:29.384Z,1.80
2018-09-21T06:12:07.628Z,1.90
2018-09-21T06:12:45.544Z,1.83
2018-09-21T06:13:23.510Z,1.80
2018-09-21T06:14:02.777Z,2.10
2018-09-21T06:14:40.810Z,1.93
2018-09-21T06:15:18.785Z,1.93
2018-09-21T06:15:57.420Z,1.77
2018-09-21T06:16:37.054Z,2.20
2018-09-21T06:17:15.072Z,2.20
2018-09-21T06:17:53.092Z,2.00
2018-09-21T06:18:31.017Z,2.00
2018-09-21T06:19:09.292Z,2.00
2018-09-21T06:19:47.488Z,1.90
2018-09-21T06:20:25.672Z,1.80
2018-09-21T06:21:04.529Z,1.90
2018-09-21T06:21:42.609Z,1.90
2018-09-21T06:22:20.641Z,1.50
2018-09-21T06:22:58.583Z,1.70
2018-09-21T06:23:36.702Z,1.93
2018-09-21T06:24:14.679Z,1.80
2018-09-21T06:24:52.563Z,1.93
2018-09-21T06:25:30.826Z,1.57
2018-09-21T06:26:09.245Z,1.70
2018-09-21T06:26:47.222Z,1.87
2018-09-21T06:27:25.302Z,2.27
2018-09-21T06:28:03.340Z,1.77
2018-09-21T06:28:41.401Z,1.60
2018-09-21T06:29:19.367Z,1.70
2018-09-21T06:29:57.527Z,1.70
2018-09-21T06:30:37.208Z,1.70
2018-09-21T06:31:15.446Z,2.20
2018-09-21T06:31:53.615Z,2.30
2018-09-21T06:32:33.534Z,2.00
2018-09-21T06:33:11.775Z,1.70
2018-09-21T06:33:49.896Z,1.80
2018-09-21T06:34:28.117Z,2.10
2018-09-21T06:35:07.141Z,1.73
2018-09-21T06:35:45.048Z,1.60
2018-09-21T06:36:24.053Z,2.00
2018-09-21T06:37:02.309Z,2.13
2018-09-21T06:37:40.377Z,1.83
2018-09-21T06:38:18.419Z,1.80
2018-09-21T06:38:56.541Z,1.60
2018-09-21T06:39:35.560Z,1.83
2018-09-21T06:40:13.406Z,1.73
2018-09-21T06:40:51.430Z,1.90
2018-09-21T06:41:29.499Z,1.90
2018-09-21T06:42:07.580Z,2.27
2018-09-21T06:42:46.069Z,1.80
2018-09-21T06:43:24.297Z,1.70
2018-09-21T06:44:02.656Z,1.67
2018-09-21T06:44:40.756Z,1.90
2018-09-21T06:45:19.708Z,1.93
2018-09-21T06:45:57.641Z,1.80
2018-09-21T06:46:36.772Z,1.63
2018-09-21T06:47:15.385Z,1.70
2018-09-21T06:47:53.494Z,1.67
2018-09-21T06:48:32.851Z,2.03
2018-09-21T06:49:10.802Z,2.00
2018-09-21T06:49:48.811Z,1.97
2018-09-21T06:50:28.069Z,1.60
2018-09-21T06:51:06.413Z,2.00
2018-09-21T06:51:44.938Z,1.83
2018-09-21T06:52:23.110Z,1.90
2018-09-21T06:53:01.352Z,1.97
2018-09-21T06:53:40.862Z,1.63
2018-09-21T06:54:19.607Z,2.30
2018-09-21T06:54:58.357Z,1.90
2018-09-21T06:55:38.796Z,1.70
2018-09-21T06:56:17.249Z,1.87
2018-09-21T06:56:55.255Z,2.20
2018-09-21T06:57:33.494Z,1.73
2018-09-21T06:58:11.399Z,1.77
2018-09-21T06:58:49.284Z,1.63
2018-09-21T06:59:28.662Z,1.93
2018-09-21T07:00:08.000Z,1.80
2018-09-21T07:00:46.901Z,2.27
2018-09-21T07:01:25.856Z,1.80
2018-09-21T07:02:04.149Z,1.90
2018-09-21T07:02:43.020Z,1.67
2018-09-21T07:03:21.353Z,1.87
2018-09-21T07:03:59.268Z,2.03
2018-09-21T07:04:37.301Z,2.00
2018-09-21T07:05:16.897Z,1.63
2018-09-21T07:05:55.579Z,1.87
2018-09-21T07:06:33.754Z,1.60
2018-09-21T07:07:11.892Z,2.20
2018-09-21T07:07:50.583Z,1.70
2018-09-21T07:08:28.959Z,2.03
2018-09-21T07:09:07.643Z,1.70
2018-09-21T07:09:45.511Z,2.00
2018-09-21T07:10:23.481Z,2.20
2018-09-21T07:11:01.862Z,1.60
2018-09-21T07:11:40.026Z,1.80
2018-09-21T07:12:18.008Z,1.93
2018-09-21T07:12:56.146Z,1.90
2018-09-21T07:13:34.269Z,1.70
2018-09-21T07:14:13.092Z,2.10
2018-09-21T07:14:51.484Z,1.40
2018-09-21T07:15:29.863Z,1.80
2018-09-21T07:16:08.583Z,2.03
2018-09-21T07:16:46.635Z,2.13
2018-09-21T07:17:24.615Z,1.83
2018-09-21T07:18:02.596Z,1.50
2018-09-21T07:18:40.760Z,2.00
2018-09-21T07:19:19.547Z,1.90
2018-09-21T07:19:58.698Z,2.33
2018-09-21T07:20:37.125Z,1.57
2018-09-21T07:21:15.542Z,1.90
2018-09-21T07:21:54.381Z,1.70
2018-09-21T07:22:32.783Z,2.13
2018-09-21T07:23:11.219Z,2.00
2018-09-21T07:23:50.717Z,1.90
2018-09-21T07:24:28.819Z,2.10
2018-09-21T07:25:07.222Z,1.80
2018-09-21T07:25:45.380Z,1.90
2018-09-21T07:26:23.528Z,1.67
2018-09-21T07:27:02.052Z,2.00
2018-09-21T07:27:41.833Z,1.70
2018-09-21T07:28:20.373Z,2.07
2018-09-21T07:28:58.593Z,2.00
2018-09-21T07:29:37.303Z,2.57
2018-09-21T07:30:15.977Z,2.47
2018-09-21T07:30:55.600Z,1.90
2018-09-21T07:31:35.077Z,2.47
2018-09-21T07:32:13.781Z,2.00
2018-09-21T07:32:52.236Z,2.20
2018-09-21T07:33:33.457Z,2.30
2018-09-21T07:34:11.967Z,2.20
2018-09-21T07:34:50.240Z,2.00
2018-09-21T07:35:29.126Z,2.10
2018-09-21T07:36:07.544Z,1.83
2018-09-21T07:36:46.132Z,1.90
2018-09-21T07:37:24.825Z,2.60
2018-09-21T07:38:03.158Z,1.97
2018-09-21T07:38:42.503Z,1.90
2018-09-21T07:39:21.065Z,2.10
2018-09-21T07:39:59.599Z,2.40
2018-09-21T07:40:38.678Z,2.07
2018-09-21T07:41:17.629Z,1.90
2018-09-21T07:41:57.325Z,2.23
2018-09-21T07:42:35.538Z,2.23
2018-09-21T07:43:14.032Z,2.10
2018-09-21T07:43:52.409Z,2.50
2018-09-21T07:44:30.922Z,2.00
2018-09-21T07:45:09.447Z,1.80
2018-09-21T07:45:47.473Z,1.70
2018-09-21T07:46:26.006Z,1.80
2018-09-21T07:47:03.988Z,1.80
2018-09-21T07:47:41.998Z,2.13
2018-09-21T07:48:20.312Z,2.00
2018-09-21T07:48:58.617Z,2.40
2018-09-21T07:49:36.948Z,2.17
2018-09-21T07:50:15.564Z,2.10
2018-09-21T07:50:53.789Z,2.00
2018-09-21T07:51:32.538Z,1.97
2018-09-21T07:52:11.107Z,1.80
2018-09-21T07:52:49.967Z,2.07
2018-09-21T07:53:28.345Z,1.80
2018-09-21T07:54:06.444Z,2.40
2018-09-21T07:54:45.025Z,2.10
2018-09-21T07:55:23.720Z,2.23
2018-09-21T07:56:03.051Z,2.40
2018-09-21T07:56:41.008Z,2.03
2018-09-21T07:57:19.099Z,2.43
2018-09-21T07:57:57.069Z,2.40
2018-09-21T07:58:35.193Z,2.17
2018-09-21T07:59:14.104Z,2.20
2018-09-21T07:59:52.427Z,2.00
2018-09-21T08:00:30.927Z,2.07
2018-09-21T08:01:23.072Z,2.30
2018-09-21T08:02:02.924Z,2.27
2018-09-21T08:02:42.611Z,1.93
2018-09-21T08:03:20.960Z,2.20
2018-09-21T08:03:59.419Z,2.67
2018-09-21T08:04:37.428Z,2.07
2018-09-21T08:05:15.621Z,2.20
2018-09-21T08:05:53.784Z,1.50
2018-09-21T08:06:31.752Z,2.00
2018-09-21T08:07:09.977Z,1.90
2018-09-21T08:07:48.006Z,2.10
2018-09-21T08:08:26.024Z,2.40
2018-09-21T08:09:04.453Z,2.27
2018-09-21T08:09:42.765Z,2.17
2018-09-21T08:10:20.778Z,2.43
2018-09-21T08:10:58.747Z,2.20
2018-09-21T08:11:36.735Z,2.17
2018-09-21T08:12:14.688Z,1.80
2018-09-21T08:12:52.767Z,1.97
2018-09-21T08:13:31.116Z,2.13
2018-09-21T08:14:09.895Z,2.60
2018-09-21T08:14:47.967Z,2.63
2018-09-21T08:15:26.000Z,2.37
2018-09-21T08:16:04.164Z,2.53
2018-09-21T08:16:42.245Z,2.77
2018-09-21T08:17:20.580Z,2.47
2018-09-21T08:17:58.624Z,2.30
2018-09-21T08:18:36.913Z,2.13
2018-09-21T08:19:14.910Z,2.60
2018-09-21T08:19:52.925Z,2.10
2018-09-21T08:20:31.001Z,2.20
2018-09-21T08:21:09.245Z,2.30
2018-09-21T08:21:47.718Z,2.47
2018-09-21T08:22:25.803Z,2.40
2018-09-21T08:23:05.009Z,2.17
2018-09-21T08:23:43.733Z,2.37
2018-09-21T08:24:21.777Z,2.37
2018-09-21T08:25:00.255Z,2.40
2018-09-21T08:25:39.033Z,2.50
2018-09-21T08:26:16.984Z,2.20
2018-09-21T08:26:56.045Z,2.13
2018-09-21T08:27:34.393Z,2.20
2018-09-21T08:28:13.889Z,2.47
2018-09-21T08:28:52.400Z,2.57
2018-09-21T08:29:30.719Z,2.10
2018-09-21T08:30:09.625Z,2.37
2018-09-21T08:30:48.178Z,2.50
2018-09-21T08:31:26.890Z,2.30
2018-09-21T08:32:06.235Z,2.67
2018-09-21T08:32:44.823Z,2.50
2018-09-21T08:33:25.238Z,2.20
2018-09-21T08:34:03.265Z,2.43
2018-09-21T08:34:41.312Z,2.10
2018-09-21T08:35:19.522Z,2.10
2018-09-21T08:35:58.019Z,2.40